KGCN/GCN METAR and TAF weather

Enter ICAO airport designator
Station Type Date Time Source
KGCN METAR 2020/02/28 07:54 UTC NOAA

KGCN 280754Z AUTO 00000KT 10SM CLR M04/M08 A3042 RMK AO2 SLP284 T10441083 $


Station Type Date Time Source
KGCN Decoded METAR 2020/02/28 07:54 UTC NOAA

GRAND CANYON NATL PARK AIRPORT , AZ, United States (KGCN) 35-57N 112-09W 2016M
Feb 28, 2020 - 02:54 AM EST / 2020.02.28 0754 UTC
Wind: Calm:0
Visibility: 10 mile(s):0
Sky conditions: clear
Temperature: 24.1 F (-4.4 C)
Dew Point: 17.1 F (-8.3 C)
Relative Humidity: 74%
Pressure (altimeter): 30.42 in. Hg (1030 hPa)
ob: KGCN 280754Z AUTO 00000KT 10SM CLR M04/M08 A3042 RMK AO2 SLP284 T10441083
cycle: 8

Station Type Date Time Source
KGCN TAF 2020/02/28 06:22 UTC NOAA

TAF KGCN 280520Z 2806/2906 VRB05KT P6SM FEW250
FM281800 10008KT P6SM BKN180

Example: see airport list